createdAt,value
2019-03-29T00:00:05.437Z,8.90
2019-03-29T00:01:05.242Z,8.90
2019-03-29T00:02:05.320Z,8.90
2019-03-29T00:03:08.966Z,8.80
2019-03-29T00:04:04.914Z,8.90
2019-03-29T00:05:04.980Z,8.90
2019-03-29T00:06:05.055Z,8.80
2019-03-29T00:07:07.662Z,8.90
2019-03-29T00:08:09.067Z,8.90
2019-03-29T00:09:05.341Z,8.90
2019-03-29T00:10:07.957Z,8.80
2019-03-29T00:11:07.461Z,8.90
2019-03-29T00:12:05.508Z,8.80
2019-03-29T00:13:05.586Z,8.90
2019-03-29T00:14:09.945Z,8.80
2019-03-29T00:15:04.914Z,8.90
2019-03-29T00:16:07.592Z,8.80
2019-03-29T00:17:08.190Z,8.80
2019-03-29T00:18:05.320Z,8.90
2019-03-29T00:19:05.447Z,8.80
2019-03-29T00:20:10.628Z,8.80
2019-03-29T00:21:05.721Z,8.80
2019-03-29T00:22:12.439Z,8.80
2019-03-29T00:23:05.476Z,8.90
2019-03-29T00:24:06.821Z,8.80
2019-03-29T00:25:07.891Z,8.80
2019-03-29T00:26:07.442Z,8.80
2019-03-29T00:27:07.933Z,8.80
2019-03-29T00:28:04.839Z,8.80
2019-03-29T00:29:05.025Z,8.80
2019-03-29T00:30:07.691Z,8.80
2019-03-29T00:31:05.623Z,8.80
2019-03-29T00:32:07.478Z,8.80
2019-03-29T00:33:05.565Z,8.80
2019-03-29T00:34:05.654Z,8.80
2019-03-29T00:35:08.021Z,8.80
2019-03-29T00:36:05.273Z,8.80
2019-03-29T00:37:08.048Z,8.80
2019-03-29T00:38:05.052Z,8.70
2019-03-29T00:39:05.196Z,8.70
2019-03-29T00:40:05.310Z,8.80
2019-03-29T00:41:08.253Z,8.80
2019-03-29T00:42:05.275Z,8.80
2019-03-29T00:43:05.369Z,8.70
2019-03-29T00:44:04.774Z,8.70
2019-03-29T00:45:07.523Z,8.70
2019-03-29T00:46:05.671Z,8.70
2019-03-29T00:47:07.329Z,8.70
2019-03-29T00:48:07.827Z,8.70
2019-03-29T00:49:07.546Z,8.70
2019-03-29T00:50:08.133Z,8.70
2019-03-29T00:51:07.812Z,8.70
2019-03-29T00:52:07.299Z,8.70
2019-03-29T00:53:05.303Z,8.70
2019-03-29T00:54:05.437Z,8.70
2019-03-29T00:55:08.069Z,8.70
2019-03-29T00:56:07.585Z,8.70
2019-03-29T00:57:05.691Z,8.70
2019-03-29T00:58:04.860Z,8.70
2019-03-29T00:59:07.472Z,8.70
2019-03-29T01:00:05.425Z,8.60
2019-03-29T01:01:04.807Z,8.60
2019-03-29T01:02:10.226Z,8.70
2019-03-29T01:03:05.220Z,8.70
2019-03-29T01:04:07.989Z,8.70
2019-03-29T01:05:07.646Z,8.70
2019-03-29T01:06:05.747Z,8.70
2019-03-29T01:07:05.218Z,8.70
2019-03-29T01:08:07.954Z,8.60
2019-03-29T01:09:05.288Z,8.70
2019-03-29T01:10:07.968Z,8.70
2019-03-29T01:11:05.038Z,8.60
2019-03-29T01:12:05.159Z,8.70
2019-03-29T01:13:08.227Z,8.70
2019-03-29T01:14:05.184Z,8.60
2019-03-29T01:15:05.206Z,8.60
2019-03-29T01:16:05.300Z,8.70
2019-03-29T01:17:05.660Z,8.60
2019-03-29T01:18:04.729Z,8.60
2019-03-29T01:19:07.330Z,8.60
2019-03-29T01:20:12.854Z,8.60
2019-03-29T01:21:07.423Z,8.60
2019-03-29T01:22:07.931Z,8.60
2019-03-29T01:23:07.559Z,8.60
2019-03-29T01:24:05.552Z,8.60
2019-03-29T01:25:05.607Z,8.60
2019-03-29T01:26:07.214Z,8.60
2019-03-29T01:27:05.154Z,8.60
2019-03-29T01:28:05.312Z,8.60
2019-03-29T01:29:05.404Z,8.60
2019-03-29T01:30:05.532Z,8.60
2019-03-29T01:31:05.625Z,8.60
2019-03-29T01:32:07.341Z,8.60
2019-03-29T01:33:07.979Z,8.60
2019-03-29T01:34:04.960Z,8.60
2019-03-29T01:35:09.047Z,8.60
2019-03-29T01:36:05.346Z,8.60
2019-03-29T01:37:05.437Z,8.60
2019-03-29T01:38:05.624Z,8.60
2019-03-29T01:39:04.789Z,8.60
2019-03-29T01:40:05.048Z,8.60
2019-03-29T01:41:05.255Z,8.60
2019-03-29T01:42:05.389Z,8.50
2019-03-29T01:43:05.583Z,8.60
2019-03-29T01:44:04.953Z,8.50
2019-03-29T01:45:07.520Z,8.50
2019-03-29T01:46:08.011Z,8.50
2019-03-29T01:47:07.533Z,8.50
2019-03-29T01:48:05.491Z,8.50
2019-03-29T01:49:08.111Z,8.50
2019-03-29T01:50:08.125Z,8.50
2019-03-29T01:51:05.789Z,8.50
2019-03-29T01:52:04.863Z,8.50
2019-03-29T01:53:04.956Z,8.50
2019-03-29T01:54:07.770Z,8.40
2019-03-29T01:55:04.766Z,8.50
2019-03-29T01:56:04.782Z,8.40
2019-03-29T01:57:04.878Z,8.50
2019-03-29T01:58:05.112Z,8.40
2019-03-29T01:59:05.257Z,8.40
2019-03-29T02:00:05.415Z,8.50
2019-03-29T02:01:08.056Z,8.50
2019-03-29T02:02:05.147Z,8.40
2019-03-29T02:03:05.639Z,8.40
2019-03-29T02:04:05.894Z,8.50
2019-03-29T02:05:05.061Z,8.40
2019-03-29T02:06:05.232Z,8.40
2019-03-29T02:07:07.934Z,8.40
2019-03-29T02:08:05.322Z,8.40
2019-03-29T02:09:05.568Z,8.40
2019-03-29T02:10:04.825Z,8.40
2019-03-29T02:11:07.527Z,8.40
2019-03-29T02:12:06.315Z,8.40
2019-03-29T02:13:05.039Z,8.40
2019-03-29T02:14:07.672Z,8.40
2019-03-29T02:15:05.605Z,8.40
2019-03-29T02:16:04.844Z,8.40
2019-03-29T02:17:05.032Z,8.40
2019-03-29T02:18:05.171Z,8.40
2019-03-29T02:19:05.925Z,8.40
2019-03-29T02:20:05.137Z,8.40
2019-03-29T02:21:07.794Z,8.40
2019-03-29T02:22:07.490Z,8.40
2019-03-29T02:23:04.920Z,8.40
2019-03-29T02:24:05.197Z,8.40
2019-03-29T02:25:07.832Z,8.40
2019-03-29T02:26:07.288Z,8.40
2019-03-29T02:27:05.540Z,8.40
2019-03-29T02:28:08.136Z,8.40
2019-03-29T02:29:07.644Z,8.40
2019-03-29T02:30:05.699Z,8.30
2019-03-29T02:31:07.457Z,8.30
2019-03-29T02:32:10.514Z,8.40
2019-03-29T02:33:05.429Z,8.40
2019-03-29T02:34:05.626Z,8.30
2019-03-29T02:35:07.240Z,8.40
2019-03-29T02:36:05.723Z,8.30
2019-03-29T02:37:04.984Z,8.30
2019-03-29T02:38:07.755Z,8.30
2019-03-29T02:39:04.741Z,8.30
2019-03-29T02:40:07.446Z,8.30
2019-03-29T02:41:05.398Z,8.30
2019-03-29T02:42:10.751Z,8.30
2019-03-29T02:43:04.878Z,8.30
2019-03-29T02:44:07.949Z,8.30
2019-03-29T02:45:05.054Z,8.30
2019-03-29T02:46:05.144Z,8.30
2019-03-29T02:47:07.302Z,8.30
2019-03-29T02:48:05.432Z,8.30
2019-03-29T02:49:05.553Z,8.30
2019-03-29T02:50:09.064Z,8.30
2019-03-29T02:51:05.365Z,8.30
2019-03-29T02:52:08.188Z,8.30
2019-03-29T02:53:07.690Z,8.30
2019-03-29T02:54:08.163Z,8.30
2019-03-29T02:55:05.098Z,8.30
2019-03-29T02:56:07.699Z,8.30
2019-03-29T02:57:04.669Z,8.30
2019-03-29T02:58:04.800Z,8.30
2019-03-29T02:59:07.614Z,8.30
2019-03-29T03:00:07.235Z,8.30
2019-03-29T03:01:05.223Z,8.30
2019-03-29T03:02:08.254Z,8.30
2019-03-29T03:03:05.303Z,8.30
2019-03-29T03:04:05.402Z,8.30
2019-03-29T03:05:08.172Z,8.30
2019-03-29T03:06:05.103Z,8.30
2019-03-29T03:07:05.154Z,8.30
2019-03-29T03:08:05.250Z,8.30
2019-03-29T03:09:12.770Z,8.30
2019-03-29T03:10:04.790Z,8.30
2019-03-29T03:11:04.876Z,8.30
2019-03-29T03:12:05.052Z,8.30
2019-03-29T03:13:07.754Z,8.30
2019-03-29T03:14:07.201Z,8.30
2019-03-29T03:15:05.236Z,8.30
2019-03-29T03:16:07.867Z,8.30
2019-03-29T03:17:07.339Z,8.30
2019-03-29T03:18:05.446Z,8.30
2019-03-29T03:19:05.525Z,8.30
2019-03-29T03:20:14.574Z,8.30
2019-03-29T03:21:08.219Z,8.30
2019-03-29T03:22:05.141Z,8.30
2019-03-29T03:23:05.644Z,8.30
2019-03-29T03:24:04.776Z,8.30
2019-03-29T03:25:07.389Z,8.30
2019-03-29T03:26:05.450Z,8.30
2019-03-29T03:27:05.535Z,8.30
2019-03-29T03:28:05.694Z,8.30
2019-03-29T03:29:04.899Z,8.30
2019-03-29T03:30:05.056Z,8.30
2019-03-29T03:31:05.186Z,8.30
2019-03-29T03:32:07.974Z,8.30
2019-03-29T03:33:05.115Z,8.30
2019-03-29T03:34:05.271Z,8.30
2019-03-29T03:35:05.502Z,8.30
2019-03-29T03:36:05.609Z,8.20
2019-03-29T03:37:04.728Z,8.30
2019-03-29T03:38:04.830Z,8.20
2019-03-29T03:39:04.923Z,8.20
2019-03-29T03:40:07.582Z,8.20
2019-03-29T03:41:05.598Z,8.20
2019-03-29T03:42:07.192Z,8.20
2019-03-29T03:43:05.216Z,8.20
2019-03-29T03:44:04.725Z,8.20
2019-03-29T03:45:09.934Z,8.20
2019-03-29T03:46:04.945Z,8.20
2019-03-29T03:47:07.699Z,8.20
2019-03-29T03:48:04.732Z,8.20
2019-03-29T03:49:04.815Z,8.20
2019-03-29T03:50:04.989Z,8.10
2019-03-29T03:51:07.682Z,8.10
2019-03-29T03:52:05.643Z,8.10
2019-03-29T03:53:04.793Z,8.10
2019-03-29T03:54:10.151Z,8.10
2019-03-29T03:55:12.972Z,8.10
2019-03-29T03:56:05.013Z,8.10
2019-03-29T03:57:07.699Z,8.10
2019-03-29T03:58:04.696Z,8.10
2019-03-29T03:59:04.811Z,8.10
2019-03-29T04:00:05.135Z,8.10
2019-03-29T04:01:07.825Z,8.10
2019-03-29T04:02:07.301Z,8.10
2019-03-29T04:03:05.283Z,8.10
2019-03-29T04:04:07.908Z,8.10
2019-03-29T04:05:07.405Z,8.10
2019-03-29T04:06:08.023Z,8.10
2019-03-29T04:07:04.993Z,8.10
2019-03-29T04:08:05.209Z,8.10
2019-03-29T04:09:07.873Z,8.10
2019-03-29T04:10:04.964Z,8.10
2019-03-29T04:11:07.792Z,8.10
2019-03-29T04:12:04.905Z,8.10
2019-03-29T04:13:05.061Z,8.10
2019-03-29T04:14:05.190Z,8.10
2019-03-29T04:15:10.382Z,8.10
2019-03-29T04:16:05.458Z,8.10
2019-03-29T04:17:08.206Z,8.10
2019-03-29T04:18:05.174Z,8.10
2019-03-29T04:19:05.370Z,8.10
2019-03-29T04:20:08.175Z,8.10
2019-03-29T04:21:05.226Z,8.10
2019-03-29T04:22:05.359Z,8.10
2019-03-29T04:23:05.482Z,8.10
2019-03-29T04:24:08.138Z,8.10
2019-03-29T04:25:07.696Z,8.10
2019-03-29T04:26:04.707Z,8.10
2019-03-29T04:27:04.959Z,8.10
2019-03-29T04:28:05.148Z,8.10
2019-03-29T04:29:05.511Z,8.10
2019-03-29T04:30:05.727Z,8.10
2019-03-29T04:31:04.931Z,8.00
2019-03-29T04:32:05.093Z,8.10
2019-03-29T04:33:05.703Z,8.00
2019-03-29T04:34:04.875Z,8.00
2019-03-29T04:35:05.004Z,8.00
2019-03-29T04:36:05.299Z,8.00
2019-03-29T04:37:04.860Z,8.00
2019-03-29T04:38:07.624Z,8.00
2019-03-29T04:39:04.843Z,8.00
2019-03-29T04:40:06.735Z,8.00
2019-03-29T04:41:04.919Z,8.00
2019-03-29T04:42:07.741Z,8.00
2019-03-29T04:43:04.796Z,8.00
2019-03-29T04:44:07.992Z,8.00
2019-03-29T04:45:05.067Z,8.00
2019-03-29T04:46:07.850Z,8.00
2019-03-29T04:47:04.974Z,8.00
2019-03-29T04:48:07.824Z,8.00
2019-03-29T04:49:04.800Z,8.00
2019-03-29T04:50:04.904Z,8.00
2019-03-29T04:51:05.026Z,8.00
2019-03-29T04:52:05.366Z,8.00
2019-03-29T04:53:05.599Z,8.00
2019-03-29T04:54:04.753Z,8.00
2019-03-29T04:55:07.391Z,7.90
2019-03-29T04:56:07.847Z,7.90
2019-03-29T04:57:04.810Z,7.90
2019-03-29T04:58:04.924Z,7.90
2019-03-29T04:59:07.691Z,7.90
2019-03-29T05:00:07.340Z,7.90
2019-03-29T05:01:05.489Z,8.00
2019-03-29T05:02:08.174Z,8.00
2019-03-29T05:03:05.194Z,7.90
2019-03-29T05:04:05.704Z,7.90
2019-03-29T05:05:04.866Z,7.90
2019-03-29T05:06:05.047Z,8.00
2019-03-29T05:07:05.229Z,8.00
2019-03-29T05:08:05.520Z,8.00
2019-03-29T05:09:04.733Z,8.00
2019-03-29T05:10:05.248Z,8.00
2019-03-29T05:11:07.503Z,7.90
2019-03-29T05:12:05.504Z,8.00
2019-03-29T05:13:04.655Z,8.00
2019-03-29T05:14:07.309Z,8.00
2019-03-29T05:15:05.237Z,8.00
2019-03-29T05:16:05.508Z,8.00
2019-03-29T05:17:05.846Z,8.00
2019-03-29T05:18:07.475Z,8.00
2019-03-29T05:19:05.533Z,8.00
2019-03-29T05:20:07.350Z,8.00
2019-03-29T05:21:05.526Z,8.00
2019-03-29T05:22:05.736Z,8.00
2019-03-29T05:23:04.846Z,8.00
2019-03-29T05:24:10.001Z,8.00
2019-03-29T05:25:05.446Z,8.00
2019-03-29T05:26:04.894Z,8.00
2019-03-29T05:27:05.088Z,8.00
2019-03-29T05:28:05.272Z,8.00
2019-03-29T05:29:05.507Z,8.00
2019-03-29T05:30:08.251Z,8.10
2019-03-29T05:31:05.305Z,8.10
2019-03-29T05:32:08.325Z,8.10
2019-03-29T05:33:08.068Z,8.10
2019-03-29T05:34:05.114Z,8.10
2019-03-29T05:35:12.842Z,8.00
2019-03-29T05:36:04.856Z,8.10
2019-03-29T05:37:05.107Z,8.10
2019-03-29T05:38:05.242Z,8.10
2019-03-29T05:39:07.429Z,8.10
2019-03-29T05:40:05.521Z,8.10
2019-03-29T05:41:04.752Z,8.10
2019-03-29T05:42:07.507Z,8.10
2019-03-29T05:43:08.120Z,8.10
2019-03-29T05:44:05.298Z,8.10
2019-03-29T05:45:07.921Z,8.10
2019-03-29T05:46:04.987Z,8.10
2019-03-29T05:47:05.254Z,8.20
2019-03-29T05:48:05.694Z,8.20
2019-03-29T05:49:04.816Z,8.20
2019-03-29T05:50:05.081Z,8.20
2019-03-29T05:51:07.747Z,8.20
2019-03-29T05:52:04.750Z,8.20
2019-03-29T05:53:05.052Z,8.20
2019-03-29T05:54:05.239Z,8.20
2019-03-29T05:55:04.976Z,8.20
2019-03-29T05:56:07.740Z,8.30
2019-03-29T05:57:04.797Z,8.30
2019-03-29T05:58:04.873Z,8.30
2019-03-29T05:59:05.528Z,8.20
2019-03-29T06:00:08.226Z,8.30
2019-03-29T06:01:07.694Z,8.30
2019-03-29T06:02:10.816Z,8.30
2019-03-29T06:03:04.932Z,8.30
2019-03-29T06:04:05.091Z,8.30
2019-03-29T06:05:05.291Z,8.30
2019-03-29T06:06:05.615Z,8.30
2019-03-29T06:07:04.853Z,8.30
2019-03-29T06:08:10.158Z,8.30
2019-03-29T06:09:05.213Z,8.30
2019-03-29T06:10:08.027Z,8.30
2019-03-29T06:11:05.124Z,8.30
2019-03-29T06:12:05.306Z,8.30
2019-03-29T06:13:05.460Z,8.30
2019-03-29T06:14:07.734Z,8.30
2019-03-29T06:15:04.861Z,8.30
2019-03-29T06:16:06.228Z,8.30
2019-03-29T06:17:05.497Z,8.40
2019-03-29T06:18:05.719Z,8.40
2019-03-29T06:19:15.105Z,8.30
2019-03-29T06:20:07.715Z,8.30
2019-03-29T06:21:04.709Z,8.30
2019-03-29T06:22:07.365Z,8.30
2019-03-29T06:23:05.379Z,8.30
2019-03-29T06:24:10.623Z,8.30
2019-03-29T06:25:07.515Z,8.40
2019-03-29T06:26:05.730Z,8.30
2019-03-29T06:27:07.509Z,8.40
2019-03-29T06:28:05.555Z,8.40
2019-03-29T06:29:07.291Z,8.40
2019-03-29T06:30:05.364Z,8.40
2019-03-29T06:31:05.582Z,8.40
2019-03-29T06:32:04.928Z,8.40
2019-03-29T06:33:08.207Z,8.40
2019-03-29T06:34:05.248Z,8.40
2019-03-29T06:35:05.482Z,8.40
2019-03-29T06:36:08.226Z,8.40
2019-03-29T06:37:10.423Z,8.50
2019-03-29T06:38:07.994Z,8.50
2019-03-29T06:39:07.579Z,8.50
2019-03-29T06:40:10.663Z,8.50
2019-03-29T06:41:08.156Z,8.50
2019-03-29T06:42:05.112Z,8.50
2019-03-29T06:43:12.994Z,8.60
2019-03-29T06:44:07.543Z,8.50
2019-03-29T06:45:05.519Z,8.50
2019-03-29T06:46:05.738Z,8.50
2019-03-29T06:47:05.014Z,8.50
2019-03-29T06:48:05.096Z,8.60
2019-03-29T06:49:05.224Z,8.60
2019-03-29T06:50:05.371Z,8.60
2019-03-29T06:51:05.540Z,8.60
2019-03-29T06:52:05.841Z,8.60
2019-03-29T06:53:05.072Z,8.60
2019-03-29T06:54:05.320Z,8.60
2019-03-29T06:55:05.572Z,8.70
2019-03-29T06:56:07.329Z,8.70
2019-03-29T06:57:05.385Z,8.70
2019-03-29T06:58:05.510Z,8.70
2019-03-29T06:59:08.274Z,8.70
2019-03-29T07:00:05.431Z,8.70
2019-03-29T07:01:08.083Z,8.70
2019-03-29T07:02:07.749Z,8.70
2019-03-29T07:03:04.800Z,8.70
2019-03-29T07:04:05.111Z,8.70
2019-03-29T07:05:07.991Z,8.70
2019-03-29T07:06:07.662Z,8.70
2019-03-29T07:07:07.242Z,8.80
2019-03-29T07:08:05.385Z,8.80
2019-03-29T07:09:05.940Z,8.80
2019-03-29T07:10:07.690Z,8.80
2019-03-29T07:11:16.479Z,8.90
2019-03-29T07:12:05.221Z,8.80
2019-03-29T07:13:05.397Z,8.80
2019-03-29T07:14:08.058Z,8.90
2019-03-29T07:15:05.130Z,8.90
2019-03-29T07:16:05.265Z,8.90
2019-03-29T07:17:10.272Z,8.90
2019-03-29T07:18:05.616Z,8.90
2019-03-29T07:19:05.267Z,9.00
2019-03-29T07:20:08.097Z,9.00
2019-03-29T07:21:05.194Z,9.00
2019-03-29T07:22:05.365Z,9.00
2019-03-29T07:23:08.024Z,9.10
2019-03-29T07:24:05.017Z,9.00
2019-03-29T07:25:05.153Z,9.10
2019-03-29T07:26:07.775Z,9.10
2019-03-29T07:27:04.870Z,9.10
2019-03-29T07:28:07.538Z,9.10
2019-03-29T07:29:08.197Z,9.10
2019-03-29T07:30:05.156Z,9.10
2019-03-29T07:31:05.224Z,9.20
2019-03-29T07:32:05.371Z,9.20
2019-03-29T07:33:10.547Z,9.20
2019-03-29T07:34:05.475Z,9.20
2019-03-29T07:35:05.581Z,9.20
2019-03-29T07:36:04.750Z,9.20
2019-03-29T07:37:05.916Z,9.20
2019-03-29T07:38:07.761Z,9.20
2019-03-29T07:39:07.300Z,9.20
2019-03-29T07:40:07.905Z,9.30
2019-03-29T07:41:04.912Z,9.30
2019-03-29T07:42:05.159Z,9.30
2019-03-29T07:43:10.316Z,9.30
2019-03-29T07:44:07.973Z,9.30
2019-03-29T07:45:10.119Z,9.40
2019-03-29T07:46:08.082Z,9.40
2019-03-29T07:47:07.708Z,9.40
2019-03-29T07:48:08.325Z,9.40
2019-03-29T07:49:05.314Z,9.40
2019-03-29T07:50:07.943Z,9.40
2019-03-29T07:51:07.604Z,9.40
2019-03-29T07:52:05.680Z,9.40
2019-03-29T07:53:05.007Z,9.40
2019-03-29T07:54:07.718Z,9.50
2019-03-29T07:55:04.839Z,9.50
2019-03-29T07:56:05.004Z,9.50
2019-03-29T07:57:07.693Z,9.50
2019-03-29T07:58:07.343Z,9.60
2019-03-29T07:59:05.390Z,9.50
2019-03-29T08:00:08.106Z,9.60
2019-03-29T08:01:05.219Z,9.50
2019-03-29T08:02:07.910Z,9.60
2019-03-29T08:03:04.885Z,9.50
2019-03-29T08:04:07.527Z,9.60
2019-03-29T08:05:05.493Z,9.60
2019-03-29T08:06:08.160Z,9.70
2019-03-29T08:07:06.044Z,9.60
2019-03-29T08:08:05.519Z,9.70
2019-03-29T08:09:05.742Z,9.70
2019-03-29T08:10:07.393Z,9.70
2019-03-29T08:11:05.540Z,9.70
2019-03-29T08:12:07.213Z,9.70
2019-03-29T08:13:05.243Z,9.80
2019-03-29T08:14:05.390Z,9.80
2019-03-29T08:15:09.559Z,9.90
2019-03-29T08:16:06.632Z,9.80
2019-03-29T08:17:07.396Z,9.90
2019-03-29T08:18:05.354Z,9.90
2019-03-29T08:19:05.539Z,9.90
2019-03-29T08:20:36.233Z,9.90
2019-03-29T08:21:04.951Z,10.00
2019-03-29T08:22:07.704Z,10.00
2019-03-29T08:23:04.682Z,10.00
2019-03-29T08:24:04.913Z,10.10
2019-03-29T08:25:05.104Z,10.10
2019-03-29T08:26:07.730Z,10.10
2019-03-29T08:27:04.711Z,10.10
2019-03-29T08:28:04.952Z,10.20
2019-03-29T08:29:07.885Z,10.30
2019-03-29T08:30:04.876Z,10.20
2019-03-29T08:31:05.084Z,10.30
2019-03-29T08:32:07.881Z,10.30
2019-03-29T08:33:07.460Z,10.40
2019-03-29T08:34:05.495Z,10.40
2019-03-29T08:35:08.144Z,10.40
2019-03-29T08:36:07.703Z,10.40
2019-03-29T08:37:04.778Z,10.50
2019-03-29T08:38:06.250Z,10.50
2019-03-29T08:39:05.693Z,10.40
2019-03-29T08:40:12.510Z,10.50
2019-03-29T08:41:05.469Z,10.50
2019-03-29T08:42:05.681Z,10.60
2019-03-29T08:43:04.928Z,10.50
2019-03-29T08:44:05.542Z,10.60
2019-03-29T08:45:04.804Z,10.70
2019-03-29T08:46:07.469Z,10.70
2019-03-29T08:47:08.139Z,10.80
2019-03-29T08:48:06.773Z,10.80
2019-03-29T08:49:04.999Z,10.80
2019-03-29T08:50:05.454Z,10.90
2019-03-29T08:51:05.661Z,10.90
2019-03-29T08:52:07.429Z,11.00
2019-03-29T08:53:05.449Z,11.00
2019-03-29T08:54:05.739Z,11.10
2019-03-29T08:55:04.906Z,11.10
2019-03-29T08:56:05.011Z,11.20
2019-03-29T08:57:05.424Z,11.20
2019-03-29T08:58:05.718Z,11.20
2019-03-29T08:59:04.913Z,11.20
2019-03-29T09:00:05.037Z,11.20
2019-03-29T09:01:07.674Z,11.20
2019-03-29T09:02:05.738Z,11.20
2019-03-29T09:03:07.525Z,11.20
2019-03-29T09:04:05.960Z,11.20
2019-03-29T09:05:07.976Z,11.30
2019-03-29T09:06:05.110Z,11.20
2019-03-29T09:07:05.263Z,11.20
2019-03-29T09:08:05.467Z,11.30
2019-03-29T09:09:05.736Z,11.30
2019-03-29T09:10:07.608Z,11.30
2019-03-29T09:11:07.547Z,11.30
2019-03-29T09:12:14.030Z,11.30
2019-03-29T09:13:04.950Z,11.30
2019-03-29T09:14:05.147Z,11.40
2019-03-29T09:15:07.855Z,11.40
2019-03-29T09:16:04.848Z,11.40
2019-03-29T09:17:05.011Z,11.40
2019-03-29T09:18:05.095Z,11.40
2019-03-29T09:19:05.205Z,11.30
2019-03-29T09:20:05.331Z,11.30
2019-03-29T09:21:05.463Z,11.30
2019-03-29T09:22:05.576Z,11.30
2019-03-29T09:23:04.843Z,11.30
2019-03-29T09:24:21.007Z,11.30
2019-03-29T09:25:05.375Z,11.20
2019-03-29T09:26:05.471Z,11.30
2019-03-29T09:27:05.559Z,11.30
2019-03-29T09:28:05.647Z,11.20
2019-03-29T09:29:07.322Z,11.30
2019-03-29T09:30:10.342Z,11.30
2019-03-29T09:31:05.312Z,11.20
2019-03-29T09:32:07.982Z,11.30
2019-03-29T09:33:04.925Z,11.30
2019-03-29T09:34:05.264Z,11.30
2019-03-29T09:35:10.442Z,11.30
2019-03-29T09:36:05.650Z,11.30
2019-03-29T09:37:07.365Z,11.40
2019-03-29T09:38:07.839Z,11.40
2019-03-29T09:39:04.893Z,11.40
2019-03-29T09:40:05.002Z,11.40
2019-03-29T09:41:07.642Z,11.50
2019-03-29T09:42:09.715Z,11.50
2019-03-29T09:43:07.488Z,11.50
2019-03-29T09:44:05.698Z,11.50
2019-03-29T09:45:04.924Z,11.50
2019-03-29T09:46:05.043Z,11.50
2019-03-29T09:47:05.177Z,11.50
2019-03-29T09:48:07.853Z,11.50
2019-03-29T09:49:08.072Z,11.50
2019-03-29T09:50:10.844Z,11.50
2019-03-29T09:51:04.964Z,11.50
2019-03-29T09:52:07.799Z,11.50
2019-03-29T09:53:05.015Z,11.50
2019-03-29T09:54:04.903Z,11.50
2019-03-29T09:55:10.173Z,11.50
2019-03-29T09:56:07.747Z,11.50
2019-03-29T09:57:04.975Z,11.50
2019-03-29T09:58:05.185Z,11.50
2019-03-29T09:59:05.457Z,11.50
2019-03-29T10:00:17.647Z,11.50
2019-03-29T10:01:05.388Z,11.50
2019-03-29T10:02:08.164Z,11.50
2019-03-29T10:03:07.771Z,11.50
2019-03-29T10:04:07.309Z,11.50
2019-03-29T10:05:05.329Z,11.50
2019-03-29T10:06:08.014Z,11.50
2019-03-29T10:07:07.608Z,11.50
2019-03-29T10:08:05.726Z,11.50
2019-03-29T10:09:05.025Z,11.50
2019-03-29T10:10:08.042Z,11.50
2019-03-29T10:11:04.998Z,11.50
2019-03-29T10:12:05.102Z,11.50
2019-03-29T10:13:05.319Z,11.50
2019-03-29T10:14:04.837Z,11.50
2019-03-29T10:15:05.096Z,11.50
2019-03-29T10:16:07.778Z,11.50
2019-03-29T10:17:07.369Z,11.50
2019-03-29T10:18:05.633Z,11.50
2019-03-29T10:19:07.359Z,11.60
2019-03-29T10:20:07.969Z,11.60
2019-03-29T10:21:05.068Z,11.50
2019-03-29T10:22:10.263Z,11.60
2019-03-29T10:23:05.227Z,11.60
2019-03-29T10:24:07.943Z,11.60
2019-03-29T10:25:18.247Z,11.60
2019-03-29T10:26:05.019Z,11.60
2019-03-29T10:27:07.610Z,11.70
2019-03-29T10:28:10.761Z,11.70
2019-03-29T10:29:04.803Z,11.70
2019-03-29T10:30:05.107Z,11.70
2019-03-29T10:31:05.224Z,11.80
2019-03-29T10:32:09.087Z,11.80
2019-03-29T10:33:08.132Z,11.80
2019-03-29T10:34:05.143Z,11.80
2019-03-29T10:35:05.351Z,11.90
2019-03-29T10:36:10.778Z,11.90
2019-03-29T10:37:04.909Z,11.90
2019-03-29T10:38:05.042Z,11.90
2019-03-29T10:39:05.220Z,11.90
2019-03-29T10:40:05.430Z,11.90
2019-03-29T10:41:05.620Z,11.90
2019-03-29T10:42:07.299Z,11.90
2019-03-29T10:43:05.232Z,11.90
2019-03-29T10:44:05.351Z,12.00
2019-03-29T10:45:05.539Z,12.00
2019-03-29T10:46:09.929Z,12.10
2019-03-29T10:47:04.913Z,12.10
2019-03-29T10:48:07.532Z,12.20
2019-03-29T10:49:10.691Z,12.10
2019-03-29T10:50:04.695Z,12.20
2019-03-29T10:51:12.421Z,12.20
2019-03-29T10:52:05.536Z,12.20
2019-03-29T10:53:05.648Z,12.20
2019-03-29T10:54:04.709Z,12.30
2019-03-29T10:55:07.453Z,12.30
2019-03-29T10:56:05.603Z,12.30
2019-03-29T10:57:04.737Z,12.20
2019-03-29T10:58:09.602Z,12.30
2019-03-29T10:59:04.926Z,12.30
2019-03-29T11:00:07.605Z,12.30
2019-03-29T11:01:05.734Z,12.30
2019-03-29T11:02:07.936Z,12.40
2019-03-29T11:03:09.907Z,12.30
2019-03-29T11:04:07.466Z,12.40
2019-03-29T11:05:08.006Z,12.30
2019-03-29T11:06:07.553Z,12.30
2019-03-29T11:07:05.542Z,12.30
2019-03-29T11:08:11.287Z,12.30
2019-03-29T11:09:07.915Z,12.40
2019-03-29T11:10:10.013Z,12.40
2019-03-29T11:11:07.567Z,12.40
2019-03-29T11:12:05.571Z,12.40
2019-03-29T11:13:12.961Z,12.40
2019-03-29T11:14:05.368Z,12.40
2019-03-29T11:15:13.539Z,12.40
2019-03-29T11:16:05.714Z,12.40
2019-03-29T11:17:04.979Z,12.40
2019-03-29T11:18:05.066Z,12.40
2019-03-29T11:19:05.362Z,12.40
2019-03-29T11:20:10.851Z,12.50
2019-03-29T11:21:05.055Z,12.50
2019-03-29T11:22:05.273Z,12.50
2019-03-29T11:23:05.429Z,12.50
2019-03-29T11:24:09.230Z,12.50
2019-03-29T11:25:05.659Z,12.50
2019-03-29T11:26:07.453Z,12.50
2019-03-29T11:27:05.485Z,12.50
2019-03-29T11:28:05.578Z,12.50
2019-03-29T11:29:07.309Z,12.50
2019-03-29T11:30:05.526Z,12.50
2019-03-29T11:31:10.334Z,12.60
2019-03-29T11:32:07.957Z,12.60
2019-03-29T11:33:05.134Z,12.50
2019-03-29T11:34:08.074Z,12.60
2019-03-29T11:35:07.623Z,12.60
2019-03-29T11:36:05.735Z,12.60
2019-03-29T11:37:12.580Z,12.50
2019-03-29T11:38:08.207Z,12.60
2019-03-29T11:39:05.345Z,12.50
2019-03-29T11:40:05.514Z,12.60
2019-03-29T11:41:10.682Z,12.60
2019-03-29T11:42:04.860Z,12.60
2019-03-29T11:43:07.564Z,12.60
2019-03-29T11:44:08.192Z,12.60
2019-03-29T11:45:05.186Z,12.60
2019-03-29T11:46:05.408Z,12.60
2019-03-29T11:47:05.614Z,12.60
2019-03-29T11:48:08.675Z,12.60
2019-03-29T11:49:07.212Z,12.70
2019-03-29T11:50:07.845Z,12.70
2019-03-29T11:51:18.193Z,12.70
2019-03-29T11:52:10.166Z,12.70
2019-03-29T11:53:07.873Z,12.70
2019-03-29T11:54:04.970Z,12.70
2019-03-29T11:55:05.146Z,12.70
2019-03-29T11:56:07.865Z,12.70
2019-03-29T11:57:04.870Z,12.70
2019-03-29T11:58:05.459Z,12.70
2019-03-29T11:59:08.225Z,12.70
2019-03-29T12:00:05.422Z,12.70
2019-03-29T12:01:05.693Z,12.70
2019-03-29T12:02:04.916Z,12.80
2019-03-29T12:03:08.641Z,12.80
2019-03-29T12:04:04.808Z,12.80
2019-03-29T12:05:07.699Z,12.90
2019-03-29T12:06:04.729Z,12.90
2019-03-29T12:07:05.050Z,12.90
2019-03-29T12:08:05.263Z,12.90
2019-03-29T12:09:07.930Z,13.00
2019-03-29T12:10:07.612Z,13.00
2019-03-29T12:11:08.240Z,13.10
2019-03-29T12:12:05.306Z,13.10
2019-03-29T12:13:05.604Z,13.20
2019-03-29T12:14:04.927Z,13.30
2019-03-29T12:15:10.306Z,13.30
2019-03-29T12:16:05.318Z,13.30
2019-03-29T12:17:08.170Z,13.30
2019-03-29T12:18:05.295Z,13.30
2019-03-29T12:19:08.135Z,13.30
2019-03-29T12:20:07.773Z,13.30
2019-03-29T12:21:04.874Z,13.30
2019-03-29T12:22:07.591Z,13.40
2019-03-29T12:23:05.715Z,13.40
2019-03-29T12:24:04.968Z,13.40
2019-03-29T12:25:05.082Z,13.40
2019-03-29T12:26:07.721Z,13.50
2019-03-29T12:27:04.725Z,13.50
2019-03-29T12:28:09.885Z,13.50
2019-03-29T12:29:04.882Z,13.50
2019-03-29T12:30:04.931Z,13.50
2019-03-29T12:31:07.506Z,13.50
2019-03-29T12:32:07.953Z,13.60
2019-03-29T12:33:04.856Z,13.60
2019-03-29T12:34:05.033Z,13.60
2019-03-29T12:35:09.946Z,13.60
2019-03-29T12:36:07.645Z,13.70
2019-03-29T12:37:08.106Z,13.80
2019-03-29T12:38:07.575Z,13.80
2019-03-29T12:39:08.218Z,13.80
2019-03-29T12:40:07.800Z,13.80
2019-03-29T12:41:04.837Z,13.90
2019-03-29T12:42:07.467Z,13.90
2019-03-29T12:43:05.460Z,13.90
2019-03-29T12:44:04.760Z,13.90
2019-03-29T12:45:04.903Z,13.90
2019-03-29T12:46:07.624Z,13.90
2019-03-29T12:47:05.683Z,13.80
2019-03-29T12:48:09.934Z,13.90
2019-03-29T12:49:04.971Z,13.90
2019-03-29T12:50:05.048Z,13.90
2019-03-29T12:51:05.216Z,13.90
2019-03-29T12:52:07.851Z,13.90
2019-03-29T12:53:07.358Z,13.90
2019-03-29T12:54:12.087Z,13.90
2019-03-29T12:55:05.183Z,13.90
2019-03-29T12:56:05.261Z,14.00
2019-03-29T12:57:06.894Z,14.00
2019-03-29T12:58:05.167Z,13.90
2019-03-29T12:59:05.312Z,13.90
2019-03-29T13:00:07.976Z,13.90
2019-03-29T13:01:05.096Z,13.90
2019-03-29T13:02:05.249Z,13.90
2019-03-29T13:03:05.355Z,13.90
2019-03-29T13:04:05.443Z,13.80
2019-03-29T13:05:05.585Z,13.90
2019-03-29T13:06:07.356Z,13.90
2019-03-29T13:07:07.915Z,13.90
2019-03-29T13:08:04.956Z,13.90